Twinsburg, Ohio
Current Conditions -  °F | °C
As of 5:58 PM on Thursday 23 Oct 2014 (Local Time) from KPOV Reporting Station
Clear Clear  
Wind Chill: 51°   Ceiling: Unl
Heat Index: 51°   Visibility: 10mi
Dew Point: 40°   Wind: 5mph
Humidity: 67%   Direction: 300°WNW
Pressure: 30.11"   Gusts: NA
Location:  41.31°N, 81.44°W
Report Text: KPOV 232158Z AUTO 30004KT 10SM CLR 11/05 A3011 RMK AO2 T01050047
Loading
Personal Weather Stations






























Interactive Weather Map
Tropical Storm Tracking
New forecast layout! Learn more

10-Day Weather Forecast

Advertisements
Track Severe Weather on mobile